Airfield :
LOGIN :

Register | Disclaimer

   EN    FR    IT 

 










Legend :    VFR   Marginal VFR   IFR   Intensive IFR   Very Intensive IFR
Visi :
Ceiling :
>= 8 km
>= 3000ft
5 to 8 km
1000 to 3000 ft
1500m to 5 km
500 to 1000 ft
800 to 1500m
200 to 500 ft
< 800m
< 200 ft
Symbols :   Thunderstorms  Fog  Heavy snow  Heavy precipitations  Wind > 20 kt
SIGMETs :     Misc.  Thunderstorms  Icing  Turbulence  Mountain Waves  Volcanic Ashes







- Airport Elevation : 1325 ft
- IATA code : EBU
- Download approach charts


LFMH - St-Etienne Boutheon

CURRENT METAR :
  • 190730Z AUTO 27003KT 220V320 CAVOK 23/13 Q1017 NOSIG

EXPIRED METARs :
  • 190700Z AUTO VRB03KT CAVOK 22/13 Q1017 NOSIG
  • 190630Z AUTO VRB01KT CAVOK 21/14 Q1017 NOSIG
  • 190600Z AUTO VRB01KT CAVOK 19/13 Q1017 NOSIG
  • 190530Z AUTO 00000KT CAVOK 17/13 Q1017 NOSIG
  • 190500Z AUTO VRB02KT CAVOK 14/12 Q1017 NOSIG

TAF TAF LFMH
Valid from the 19 at 03:00 until the 20 at 03:00 UTC


190200Z 1903/2003 02005KT CAVOK
BECMG 1909/1911 36008KT
BECMG 1918/1921 VRB04KT
ATIS : +33 4 77 36 17 51
No reported NOTAMs for that airfield.



MET'MAP, your aeronautical weather chart ! - Copyright ORBIFLY December 2007 - Disclaimer

ORBIFLY MET'MAP TEAM :

Programming & Development : Alexandra Zaïnal
Concept & Development : Baudouin d'Aumeries
Co-Development & Prog : Marc-Olivier Méhu
Technical & hardware support : Manuel Goepfert

Contact : metmap@orbifly.com




SOURCES & CREDITS :

   NOAA